sensor_id;sensor_type;location;lat;lon;timestamp;P1;durP1;ratioP1;P2;durP2;ratioP2
49980;SDS011;35871;51.594;7.138;2023-04-10T05:52:26;8.90;;;7.20;;
49980;SDS011;35871;51.594;7.138;2023-04-10T06:02:34;9.57;;;8.25;;
49980;SDS011;35871;51.594;7.138;2023-04-10T06:07:36;9.88;;;8.73;;
49980;SDS011;35871;51.594;7.138;2023-04-10T06:12:42;8.38;;;7.25;;
49980;SDS011;35871;51.594;7.138;2023-04-10T06:17:50;9.10;;;7.75;;
49980;SDS011;35871;51.594;7.138;2023-04-10T06:22:58;9.48;;;8.25;;
49980;SDS011;35871;51.594;7.138;2023-04-10T06:28:04;9.02;;;7.85;;
49980;SDS011;35871;51.594;7.138;2023-04-10T06:33:05;9.23;;;8.07;;
49980;SDS011;35871;51.594;7.138;2023-04-10T06:38:12;8.68;;;7.75;;
49980;SDS011;35871;51.594;7.138;2023-04-10T06:43:15;7.95;;;7.15;;
49980;SDS011;35871;51.594;7.138;2023-04-10T06:48:19;9.35;;;8.20;;
49980;SDS011;35871;51.594;7.138;2023-04-10T06:58:22;7.18;;;6.28;;
49980;SDS011;35871;51.594;7.138;2023-04-10T07:09:31;6.88;;;5.78;;
49980;SDS011;35871;51.594;7.138;2023-04-10T07:19:48;6.70;;;5.55;;
49980;SDS011;35871;51.594;7.138;2023-04-10T07:24:51;6.53;;;5.43;;
49980;SDS011;35871;51.594;7.138;2023-04-10T07:30:01;6.45;;;4.93;;
49980;SDS011;35871;51.594;7.138;2023-04-10T07:35:03;5.75;;;5.00;;
49980;SDS011;35871;51.594;7.138;2023-04-10T07:40:06;6.50;;;5.07;;
49980;SDS011;35871;51.594;7.138;2023-04-10T07:45:08;6.05;;;4.97;;
49980;SDS011;35871;51.594;7.138;2023-04-10T07:50:46;6.20;;;5.18;;
49980;SDS011;35871;51.594;7.138;2023-04-10T07:55:48;6.35;;;5.10;;
49980;SDS011;35871;51.594;7.138;2023-04-10T08:00:50;5.70;;;4.78;;
49980;SDS011;35871;51.594;7.138;2023-04-10T08:05:51;5.40;;;4.72;;
49980;SDS011;35871;51.594;7.138;2023-04-10T08:10:54;6.05;;;4.90;;
49980;SDS011;35871;51.594;7.138;2023-04-10T08:21:41;6.03;;;4.90;;
49980;SDS011;35871;51.594;7.138;2023-04-10T08:26:44;5.43;;;4.45;;
49980;SDS011;35871;51.594;7.138;2023-04-10T08:31:45;5.70;;;4.00;;
49980;SDS011;35871;51.594;7.138;2023-04-10T08:36:50;5.93;;;4.20;;
49980;SDS011;35871;51.594;7.138;2023-04-10T08:41:51;6.80;;;3.90;;
49980;SDS011;35871;51.594;7.138;2023-04-10T08:46:52;4.75;;;3.80;;
49980;SDS011;35871;51.594;7.138;2023-04-10T08:52:08;4.60;;;4.10;;
49980;SDS011;35871;51.594;7.138;2023-04-10T08:57:18;4.50;;;3.92;;
49980;SDS011;35871;51.594;7.138;2023-04-10T09:02:24;4.60;;;3.78;;
49980;SDS011;35871;51.594;7.138;2023-04-10T09:07:25;4.55;;;3.47;;
49980;SDS011;35871;51.594;7.138;2023-04-10T09:17:27;5.05;;;3.38;;
49980;SDS011;35871;51.594;7.138;2023-04-10T09:22:34;4.20;;;3.38;;
49980;SDS011;35871;51.594;7.138;2023-04-10T09:27:38;3.50;;;3.03;;
49980;SDS011;35871;51.594;7.138;2023-04-10T09:32:41;3.70;;;3.13;;
49980;SDS011;35871;51.594;7.138;2023-04-10T09:37:46;4.15;;;3.03;;
49980;SDS011;35871;51.594;7.138;2023-04-10T09:42:49;4.05;;;3.63;;
49980;SDS011;35871;51.594;7.138;2023-04-10T09:48:03;3.67;;;3.25;;
49980;SDS011;35871;51.594;7.138;2023-04-10T09:53:04;3.72;;;3.08;;
49980;SDS011;35871;51.594;7.138;2023-04-10T10:03:13;4.05;;;3.33;;
49980;SDS011;35871;51.594;7.138;2023-04-10T10:08:15;3.65;;;3.08;;
49980;SDS011;35871;51.594;7.138;2023-04-10T10:13:27;3.42;;;2.92;;
49980;SDS011;35871;51.594;7.138;2023-04-10T10:23:56;3.22;;;2.80;;
49980;SDS011;35871;51.594;7.138;2023-04-10T10:29:00;4.80;;;3.00;;
49980;SDS011;35871;51.594;7.138;2023-04-10T10:34:05;3.65;;;3.20;;
49980;SDS011;35871;51.594;7.138;2023-04-10T10:39:31;4.07;;;3.17;;
49980;SDS011;35871;51.594;7.138;2023-04-10T10:44:38;3.53;;;2.92;;
49980;SDS011;35871;51.594;7.138;2023-04-10T10:49:56;5.47;;;3.55;;
49980;SDS011;35871;51.594;7.138;2023-04-10T11:10:59;3.25;;;2.58;;
49980;SDS011;35871;51.594;7.138;2023-04-10T11:16:05;4.68;;;2.50;;
49980;SDS011;35871;51.594;7.138;2023-04-10T11:21:19;3.30;;;2.90;;
49980;SDS011;35871;51.594;7.138;2023-04-10T11:31:40;3.63;;;3.00;;
49980;SDS011;35871;51.594;7.138;2023-04-10T11:36:50;2.90;;;2.50;;
49980;SDS011;35871;51.594;7.138;2023-04-10T12:04:58;4.88;;;2.70;;
49980;SDS011;35871;51.594;7.138;2023-04-10T12:10:00;3.30;;;2.85;;
49980;SDS011;35871;51.594;7.138;2023-04-10T12:15:02;3.42;;;2.65;;
49980;SDS011;35871;51.594;7.138;2023-04-10T12:20:05;3.30;;;3.00;;
49980;SDS011;35871;51.594;7.138;2023-04-10T12:25:06;2.88;;;2.58;;
49980;SDS011;35871;51.594;7.138;2023-04-10T12:30:11;4.00;;;2.60;;
49980;SDS011;35871;51.594;7.138;2023-04-10T12:35:12;3.67;;;2.63;;
49980;SDS011;35871;51.594;7.138;2023-04-10T12:40:14;3.92;;;2.50;;
49980;SDS011;35871;51.594;7.138;2023-04-10T12:45:15;2.60;;;2.20;;
49980;SDS011;35871;51.594;7.138;2023-04-10T12:50:16;3.20;;;2.30;;
49980;SDS011;35871;51.594;7.138;2023-04-10T12:55:18;2.50;;;2.10;;
49980;SDS011;35871;51.594;7.138;2023-04-10T13:00:20;2.90;;;2.30;;
49980;SDS011;35871;51.594;7.138;2023-04-10T13:05:21;2.92;;;2.40;;
49980;SDS011;35871;51.594;7.138;2023-04-10T13:10:22;2.50;;;2.25;;
49980;SDS011;35871;51.594;7.138;2023-04-10T13:15:23;2.88;;;2.40;;
49980;SDS011;35871;51.594;7.138;2023-04-10T13:20:24;3.08;;;2.63;;
49980;SDS011;35871;51.594;7.138;2023-04-10T13:25:25;3.47;;;2.63;;
49980;SDS011;35871;51.594;7.138;2023-04-10T13:30:27;2.65;;;2.17;;
49980;SDS011;35871;51.594;7.138;2023-04-10T13:35:28;3.00;;;2.28;;
49980;SDS011;35871;51.594;7.138;2023-04-10T13:40:29;3.50;;;2.33;;
49980;SDS011;35871;51.594;7.138;2023-04-10T13:45:31;2.90;;;2.50;;
49980;SDS011;35871;51.594;7.138;2023-04-10T13:50:33;3.25;;;2.38;;
49980;SDS011;35871;51.594;7.138;2023-04-10T13:55:35;3.05;;;2.22;;
49980;SDS011;35871;51.594;7.138;2023-04-10T14:00:36;3.45;;;2.47;;
49980;SDS011;35871;51.594;7.138;2023-04-10T14:05:38;2.58;;;2.20;;
49980;SDS011;35871;51.594;7.138;2023-04-10T14:10:39;2.65;;;2.30;;
49980;SDS011;35871;51.594;7.138;2023-04-10T14:15:40;3.15;;;2.47;;
49980;SDS011;35871;51.594;7.138;2023-04-10T14:20:41;3.60;;;2.70;;
49980;SDS011;35871;51.594;7.138;2023-04-10T14:25:43;3.30;;;2.45;;
49980;SDS011;35871;51.594;7.138;2023-04-10T14:30:44;3.20;;;2.47;;
49980;SDS011;35871;51.594;7.138;2023-04-10T14:35:45;2.80;;;2.40;;
49980;SDS011;35871;51.594;7.138;2023-04-10T14:40:47;2.72;;;2.30;;
49980;SDS011;35871;51.594;7.138;2023-04-10T14:45:49;4.07;;;2.85;;
49980;SDS011;35871;51.594;7.138;2023-04-10T14:50:50;3.85;;;2.60;;
49980;SDS011;35871;51.594;7.138;2023-04-10T14:55:51;3.70;;;2.60;;
49980;SDS011;35871;51.594;7.138;2023-04-10T15:00:52;4.40;;;2.80;;
49980;SDS011;35871;51.594;7.138;2023-04-10T15:05:59;3.17;;;2.88;;
49980;SDS011;35871;51.594;7.138;2023-04-10T15:11:01;3.97;;;2.50;;
49980;SDS011;35871;51.594;7.138;2023-04-10T15:16:04;3.15;;;2.70;;
49980;SDS011;35871;51.594;7.138;2023-04-10T15:21:07;3.30;;;2.58;;
49980;SDS011;35871;51.594;7.138;2023-04-10T15:26:11;3.72;;;2.92;;
49980;SDS011;35871;51.594;7.138;2023-04-10T15:31:13;3.42;;;2.72;;
49980;SDS011;35871;51.594;7.138;2023-04-10T15:36:14;3.22;;;2.80;;
49980;SDS011;35871;51.594;7.138;2023-04-10T15:41:15;3.05;;;2.70;;
49980;SDS011;35871;51.594;7.138;2023-04-10T15:46:16;3.50;;;2.63;;
49980;SDS011;35871;51.594;7.138;2023-04-10T15:51:18;3.80;;;3.10;;
49980;SDS011;35871;51.594;7.138;2023-04-10T15:56:19;3.40;;;2.80;;
49980;SDS011;35871;51.594;7.138;2023-04-10T16:01:20;3.47;;;2.75;;
49980;SDS011;35871;51.594;7.138;2023-04-10T16:06:21;3.53;;;2.80;;
49980;SDS011;35871;51.594;7.138;2023-04-10T16:11:26;4.70;;;2.83;;
49980;SDS011;35871;51.594;7.138;2023-04-10T16:16:27;5.13;;;3.97;;
49980;SDS011;35871;51.594;7.138;2023-04-10T16:21:29;2.80;;;2.28;;
49980;SDS011;35871;51.594;7.138;2023-04-10T16:26:30;3.55;;;2.40;;
49980;SDS011;35871;51.594;7.138;2023-04-10T16:31:31;3.30;;;2.20;;
49980;SDS011;35871;51.594;7.138;2023-04-10T16:36:32;3.55;;;2.30;;
49980;SDS011;35871;51.594;7.138;2023-04-10T16:41:33;3.28;;;2.40;;
49980;SDS011;35871;51.594;7.138;2023-04-10T16:46:34;3.72;;;2.40;;
49980;SDS011;35871;51.594;7.138;2023-04-10T16:51:35;2.88;;;2.30;;
49980;SDS011;35871;51.594;7.138;2023-04-10T16:56:37;3.47;;;2.75;;
49980;SDS011;35871;51.594;7.138;2023-04-10T17:06:39;3.72;;;2.50;;
49980;SDS011;35871;51.594;7.138;2023-04-10T17:16:41;4.35;;;2.55;;
49980;SDS011;35871;51.594;7.138;2023-04-10T17:21:42;4.30;;;2.95;;
49980;SDS011;35871;51.594;7.138;2023-04-10T17:31:44;4.70;;;2.78;;
49980;SDS011;35871;51.594;7.138;2023-04-10T17:41:48;7.47;;;2.83;;
49980;SDS011;35871;51.594;7.138;2023-04-10T17:46:49;4.80;;;2.17;;
49980;SDS011;35871;51.594;7.138;2023-04-10T17:51:52;6.75;;;2.47;;
49980;SDS011;35871;51.594;7.138;2023-04-10T18:01:55;7.18;;;2.47;;
49980;SDS011;35871;51.594;7.138;2023-04-10T18:07:01;4.05;;;2.40;;
49980;SDS011;35871;51.594;7.138;2023-04-10T18:12:04;6.97;;;2.20;;
49980;SDS011;35871;51.594;7.138;2023-04-10T18:17:05;3.65;;;2.45;;
49980;SDS011;35871;51.594;7.138;2023-04-10T18:22:14;6.82;;;2.63;;
49980;SDS011;35871;51.594;7.138;2023-04-10T18:27:15;4.70;;;2.17;;
49980;SDS011;35871;51.594;7.138;2023-04-10T18:32:16;3.38;;;2.47;;
49980;SDS011;35871;51.594;7.138;2023-04-10T18:37:17;5.45;;;2.70;;
49980;SDS011;35871;51.594;7.138;2023-04-10T18:42:18;4.13;;;2.47;;
49980;SDS011;35871;51.594;7.138;2023-04-10T18:47:19;4.47;;;2.30;;
49980;SDS011;35871;51.594;7.138;2023-04-10T18:52:20;4.00;;;2.47;;
49980;SDS011;35871;51.594;7.138;2023-04-10T18:57:21;3.15;;;2.85;;
49980;SDS011;35871;51.594;7.138;2023-04-10T19:07:23;4.15;;;3.00;;
49980;SDS011;35871;51.594;7.138;2023-04-10T19:12:24;4.32;;;3.50;;
